Terminal Aerodrome Forecast
Issued by NWS Portland, OR

Home | Current Version | Previous Version | Text Only | Print | Product List | Glossary On
Versions: 1 2 3 4 5 6 7 8 9 10 11 12 13 14 15 16
000
FTUS46 KPQR 162159 AAB
TAFAST
TAF AMD
KAST 162159Z 1622/1718 20011G18KT 5SM -RA BR BKN015 OVC030
     FM170300 20011KT 4SM -RADZ BR BKN015 OVC025
     FM170900 20008KT 4SM -RA BR BKN009 OVC015
     FM171400 20010KT P6SM -RA SCT010 OVC020=

USA.gov is the U.S. government's official web portal to all federal, state and local government web resources and services.